createdAt,value
2022-12-09T00:00:20.683Z,2.20
2022-12-09T00:02:48.661Z,2.20
2022-12-09T00:05:17.539Z,2.20
2022-12-09T00:07:45.611Z,2.20
2022-12-09T00:10:13.859Z,2.20
2022-12-09T00:12:43.451Z,2.20
2022-12-09T00:15:11.886Z,2.20
2022-12-09T00:17:39.992Z,2.20
2022-12-09T00:20:09.720Z,2.20
2022-12-09T00:22:37.919Z,2.20
2022-12-09T00:25:06.759Z,2.20
2022-12-09T00:27:34.782Z,2.20
2022-12-09T00:30:05.026Z,2.10
2022-12-09T00:32:33.903Z,2.10
2022-12-09T00:35:01.927Z,2.10
2022-12-09T00:37:29.834Z,2.10
2022-12-09T00:39:57.784Z,2.10
2022-12-09T00:42:25.692Z,2.10
2022-12-09T00:44:53.574Z,2.10
2022-12-09T00:47:22.841Z,2.10
2022-12-09T00:49:50.875Z,2.10
2022-12-09T00:52:18.809Z,2.10
2022-12-09T00:54:46.665Z,2.10
2022-12-09T00:57:14.607Z,2.00
2022-12-09T00:59:42.500Z,2.10
2022-12-09T01:02:10.849Z,2.00
2022-12-09T01:04:40.351Z,2.00
2022-12-09T01:07:08.372Z,2.00
2022-12-09T01:09:36.302Z,2.00
2022-12-09T01:12:04.793Z,2.00
2022-12-09T01:14:32.621Z,2.00
2022-12-09T01:17:00.721Z,2.00
2022-12-09T01:19:28.587Z,2.00
2022-12-09T01:21:57.764Z,2.00
2022-12-09T01:24:25.616Z,2.00
2022-12-09T01:26:53.758Z,2.00
2022-12-09T01:29:21.781Z,2.00
2022-12-09T01:31:50.047Z,2.00
2022-12-09T01:34:18.182Z,2.00
2022-12-09T01:36:47.850Z,2.00
2022-12-09T01:39:17.831Z,1.90
2022-12-09T01:41:46.476Z,2.00
2022-12-09T01:44:21.331Z,2.00
2022-12-09T01:46:49.738Z,1.90
2022-12-09T01:49:23.359Z,2.00
2022-12-09T01:52:00.309Z,2.00
2022-12-09T01:54:30.846Z,2.00
2022-12-09T01:56:59.784Z,1.90
2022-12-09T01:59:28.629Z,2.00
2022-12-09T02:01:59.948Z,1.90
2022-12-09T02:04:29.787Z,2.00
2022-12-09T02:06:59.186Z,2.00
2022-12-09T02:09:27.151Z,2.00
2022-12-09T02:12:07.775Z,2.00
2022-12-09T02:14:41.447Z,2.00
2022-12-09T02:17:23.486Z,2.00
2022-12-09T02:20:01.711Z,2.00
2022-12-09T02:22:35.584Z,2.00
2022-12-09T02:25:12.015Z,2.00
2022-12-09T02:27:47.273Z,2.00
2022-12-09T02:30:18.860Z,2.00
2022-12-09T02:33:13.370Z,2.00
2022-12-09T02:35:49.850Z,2.00
2022-12-09T02:38:22.296Z,2.00
2022-12-09T02:40:54.995Z,2.00
2022-12-09T02:43:28.390Z,2.00
2022-12-09T02:45:57.437Z,2.00
2022-12-09T02:48:29.784Z,2.00
2022-12-09T02:50:59.582Z,2.00
2022-12-09T02:53:27.821Z,2.00
2022-12-09T02:55:57.243Z,2.00
2022-12-09T02:58:25.308Z,2.00
2022-12-09T03:00:56.718Z,2.00
2022-12-09T03:03:25.759Z,2.00
2022-12-09T03:06:01.599Z,2.00
2022-12-09T03:08:37.020Z,2.00
2022-12-09T03:11:08.969Z,2.00
2022-12-09T03:13:45.718Z,2.00
2022-12-09T03:16:21.681Z,2.00
2022-12-09T03:18:55.496Z,2.00
2022-12-09T03:21:27.361Z,1.90
2022-12-09T03:23:57.358Z,1.90
2022-12-09T03:26:28.639Z,1.90
2022-12-09T03:28:56.871Z,1.90
2022-12-09T03:31:27.969Z,1.90
2022-12-09T03:33:59.507Z,1.90
2022-12-09T03:36:33.687Z,1.90
2022-12-09T03:39:03.004Z,1.90
2022-12-09T03:41:33.418Z,2.00
2022-12-09T03:44:09.174Z,1.90
2022-12-09T03:46:37.241Z,1.90
2022-12-09T03:49:05.827Z,1.90
2022-12-09T03:51:38.808Z,1.90
2022-12-09T03:54:13.850Z,1.90
2022-12-09T03:56:46.153Z,1.90
2022-12-09T03:59:16.212Z,1.90
2022-12-09T04:01:45.994Z,1.90
2022-12-09T04:04:14.531Z,1.90
2022-12-09T04:06:44.236Z,1.90
2022-12-09T04:09:13.236Z,1.90
2022-12-09T04:11:41.429Z,1.90
2022-12-09T04:14:15.024Z,1.90
2022-12-09T04:16:43.611Z,1.90
2022-12-09T04:19:11.825Z,1.90
2022-12-09T04:21:39.877Z,1.90
2022-12-09T04:24:10.142Z,1.90
2022-12-09T04:26:38.184Z,2.00
2022-12-09T04:29:06.379Z,1.90
2022-12-09T04:31:34.269Z,1.90
2022-12-09T04:34:08.296Z,2.00
2022-12-09T04:36:37.451Z,1.90
2022-12-09T04:39:06.141Z,1.90
2022-12-09T04:41:35.512Z,1.90
2022-12-09T04:44:03.657Z,2.00
2022-12-09T04:46:31.769Z,1.90
2022-12-09T04:48:59.925Z,1.90
2022-12-09T04:51:28.056Z,1.90
2022-12-09T04:53:56.346Z,2.00
2022-12-09T04:56:24.976Z,1.90
2022-12-09T04:58:54.261Z,1.90
2022-12-09T05:01:29.881Z,1.90
2022-12-09T05:03:59.676Z,1.90
2022-12-09T05:06:28.248Z,1.90
2022-12-09T05:08:56.584Z,1.90
2022-12-09T05:11:25.277Z,1.90
2022-12-09T05:13:55.986Z,1.90
2022-12-09T05:16:24.200Z,1.90
2022-12-09T05:18:52.548Z,1.90
2022-12-09T05:21:22.438Z,1.90
2022-12-09T05:23:51.066Z,1.90
2022-12-09T05:26:22.816Z,1.90
2022-12-09T05:28:51.676Z,1.90
2022-12-09T05:31:23.684Z,1.90
2022-12-09T05:33:52.840Z,1.90
2022-12-09T05:36:24.301Z,1.90
2022-12-09T05:38:53.387Z,1.90
2022-12-09T05:41:22.944Z,1.90
2022-12-09T05:43:51.191Z,1.90
2022-12-09T05:46:21.418Z,1.90
2022-12-09T05:48:49.946Z,1.90
2022-12-09T05:51:24.667Z,1.80
2022-12-09T05:53:52.976Z,1.80
2022-12-09T05:56:22.679Z,1.80
2022-12-09T05:58:52.103Z,1.80
2022-12-09T06:01:21.559Z,1.80
2022-12-09T06:03:50.112Z,1.80
2022-12-09T06:06:21.177Z,1.80
2022-12-09T06:08:50.200Z,1.80
2022-12-09T06:11:20.925Z,1.80
2022-12-09T06:13:50.654Z,1.80
2022-12-09T06:16:22.495Z,1.80
2022-12-09T06:18:50.750Z,1.80
2022-12-09T06:21:21.809Z,1.80
2022-12-09T06:23:50.795Z,1.80
2022-12-09T06:26:20.898Z,1.80
2022-12-09T06:28:49.543Z,1.70
2022-12-09T06:31:18.104Z,1.70
2022-12-09T06:33:57.621Z,1.70
2022-12-09T06:36:27.235Z,1.70
2022-12-09T06:38:56.559Z,1.80
2022-12-09T06:41:25.368Z,1.70
2022-12-09T06:43:53.393Z,1.70
2022-12-09T06:46:24.667Z,1.70
2022-12-09T06:48:55.070Z,1.70
2022-12-09T06:51:24.400Z,1.70
2022-12-09T06:53:52.716Z,1.70
2022-12-09T06:56:21.089Z,1.70
2022-12-09T06:58:49.122Z,1.70
2022-12-09T07:01:19.159Z,1.70
2022-12-09T07:03:49.294Z,1.70
2022-12-09T07:06:23.874Z,1.70
2022-12-09T07:08:52.672Z,1.70
2022-12-09T07:11:20.969Z,1.70
2022-12-09T07:13:50.330Z,1.60
2022-12-09T07:16:18.635Z,1.60
2022-12-09T07:18:46.975Z,1.60
2022-12-09T07:21:17.500Z,1.60
2022-12-09T07:23:47.839Z,1.60
2022-12-09T07:26:16.959Z,1.60
2022-12-09T07:28:47.361Z,1.60
2022-12-09T07:31:21.379Z,1.60
2022-12-09T07:33:50.016Z,1.60
2022-12-09T07:36:21.299Z,1.50
2022-12-09T07:38:55.289Z,1.50
2022-12-09T07:41:23.604Z,1.50
2022-12-09T07:43:51.670Z,1.50
2022-12-09T07:46:21.706Z,1.50
2022-12-09T07:48:50.329Z,1.50
2022-12-09T07:51:18.648Z,1.50
2022-12-09T07:53:47.252Z,1.50
2022-12-09T07:56:18.698Z,1.50
2022-12-09T07:58:48.236Z,1.50
2022-12-09T08:01:18.866Z,1.50
2022-12-09T08:03:48.528Z,1.50
2022-12-09T08:06:18.307Z,1.50
2022-12-09T08:08:47.339Z,1.50
2022-12-09T08:11:19.753Z,1.50
2022-12-09T08:13:48.227Z,1.50
2022-12-09T08:16:18.676Z,1.50
2022-12-09T08:18:48.019Z,1.50
2022-12-09T08:21:19.673Z,1.50
2022-12-09T08:23:47.998Z,1.50
2022-12-09T08:26:19.968Z,1.50
2022-12-09T08:28:48.759Z,1.50
2022-12-09T08:31:19.944Z,1.50
2022-12-09T08:33:49.108Z,1.50
2022-12-09T08:36:19.814Z,1.50
2022-12-09T08:38:48.213Z,1.50
2022-12-09T08:41:18.983Z,1.50
2022-12-09T08:43:47.635Z,1.50
2022-12-09T08:46:16.427Z,1.50
2022-12-09T08:48:44.756Z,1.50
2022-12-09T08:51:13.336Z,1.50
2022-12-09T08:53:42.130Z,1.50
2022-12-09T08:56:12.761Z,1.50
2022-12-09T08:58:43.211Z,1.50
2022-12-09T09:01:16.572Z,1.60
2022-12-09T09:03:44.953Z,1.60
2022-12-09T09:06:13.333Z,1.60
2022-12-09T09:08:41.661Z,1.60
2022-12-09T09:11:11.500Z,1.60
2022-12-09T09:13:40.167Z,1.60
2022-12-09T09:16:13.267Z,1.60
2022-12-09T09:18:41.965Z,1.60
2022-12-09T09:21:11.844Z,1.60
2022-12-09T09:23:40.259Z,1.60
2022-12-09T09:26:10.878Z,1.60
2022-12-09T09:28:39.269Z,1.60
2022-12-09T09:42:49.307Z,1.70
2022-12-09T09:45:21.334Z,1.60
2022-12-09T09:47:54.394Z,1.60
2022-12-09T09:50:30.303Z,1.70
2022-12-09T09:52:59.184Z,1.70
2022-12-09T09:55:36.845Z,1.70
2022-12-09T09:58:18.159Z,1.70
2022-12-09T10:00:53.423Z,1.70
2022-12-09T10:03:35.942Z,1.70
2022-12-09T10:06:22.474Z,1.70
2022-12-09T10:08:59.568Z,1.70
2022-12-09T10:11:33.280Z,1.70
2022-12-09T10:14:24.790Z,1.80
2022-12-09T10:17:02.326Z,1.70
2022-12-09T10:19:36.336Z,1.80
2022-12-09T10:22:14.499Z,1.80
2022-12-09T10:24:49.323Z,1.80
2022-12-09T10:27:32.130Z,1.80
2022-12-09T10:30:03.700Z,1.80
2022-12-09T10:32:33.552Z,1.80
2022-12-09T10:35:07.107Z,1.80
2022-12-09T10:37:37.606Z,1.80
2022-12-09T10:40:21.969Z,1.80
2022-12-09T10:43:09.619Z,1.80
2022-12-09T10:46:15.774Z,1.80
2022-12-09T10:48:36.459Z,1.80
2022-12-09T10:51:11.447Z,1.80
2022-12-09T10:53:48.766Z,1.80
2022-12-09T10:56:21.920Z,1.80
2022-12-09T10:58:50.204Z,1.90
2022-12-09T11:01:18.689Z,1.90
2022-12-09T11:03:51.133Z,1.90
2022-12-09T11:06:25.018Z,1.90
2022-12-09T11:08:58.032Z,1.90
2022-12-09T11:11:44.687Z,1.90
2022-12-09T11:14:23.440Z,1.90
2022-12-09T11:16:53.912Z,1.90
2022-12-09T11:19:31.727Z,1.90
2022-12-09T11:22:25.048Z,1.90
2022-12-09T11:24:56.685Z,1.90
2022-12-09T11:27:31.881Z,1.90
2022-12-09T11:30:14.651Z,1.90
2022-12-09T11:33:02.289Z,2.00
2022-12-09T11:35:34.939Z,2.00
2022-12-09T11:38:15.974Z,2.00
2022-12-09T11:40:44.267Z,2.00
2022-12-09T11:43:12.277Z,2.00
2022-12-09T11:45:46.078Z,2.00
2022-12-09T11:48:32.793Z,2.00
2022-12-09T11:51:02.782Z,2.00
2022-12-09T11:53:33.625Z,2.00
2022-12-09T11:56:07.079Z,2.00
2022-12-09T11:58:41.782Z,2.00
2022-12-09T12:01:14.429Z,2.00
2022-12-09T12:03:47.233Z,2.10
2022-12-09T12:06:21.698Z,2.10
2022-12-09T12:08:55.598Z,2.10
2022-12-09T12:11:29.581Z,2.10
2022-12-09T12:14:04.287Z,2.10
2022-12-09T12:16:45.298Z,2.10
2022-12-09T12:19:17.897Z,2.10
2022-12-09T12:22:06.999Z,2.10
2022-12-09T12:25:18.386Z,2.10
2022-12-09T12:28:00.963Z,2.10
2022-12-09T12:30:39.238Z,2.20
2022-12-09T12:36:25.604Z,2.20
2022-12-09T12:39:06.972Z,2.20
2022-12-09T12:41:47.673Z,2.20
2022-12-09T12:44:50.244Z,2.20
2022-12-09T12:47:23.969Z,2.20
2022-12-09T12:50:16.001Z,2.20
2022-12-09T12:52:57.078Z,2.20
2022-12-09T12:55:42.572Z,2.20
2022-12-09T12:58:20.196Z,2.20
2022-12-09T13:01:00.803Z,2.20
2022-12-09T13:03:37.520Z,2.20
2022-12-09T13:06:06.124Z,2.20
2022-12-09T13:08:39.391Z,2.20
2022-12-09T13:11:12.724Z,2.20
2022-12-09T13:13:46.791Z,2.20
2022-12-09T13:16:20.261Z,2.20
2022-12-09T13:18:50.208Z,2.20
2022-12-09T13:21:18.796Z,2.20
2022-12-09T13:23:57.543Z,2.20
2022-12-09T13:26:34.313Z,2.20
2022-12-09T13:29:14.216Z,2.20
2022-12-09T13:31:58.431Z,2.20
2022-12-09T13:34:35.941Z,2.20
2022-12-09T13:37:06.636Z,2.30
2022-12-09T13:39:57.818Z,2.30
2022-12-09T13:42:56.343Z,2.30
2022-12-09T13:45:35.524Z,2.30
2022-12-09T13:48:11.937Z,2.30
2022-12-09T13:50:44.600Z,2.30
2022-12-09T13:53:27.009Z,2.30
2022-12-09T13:55:57.324Z,2.30
2022-12-09T13:58:48.072Z,2.30
2022-12-09T14:01:33.868Z,2.30
2022-12-09T14:04:08.574Z,2.30
2022-12-09T14:06:48.510Z,2.30
2022-12-09T14:09:26.732Z,2.30
2022-12-09T14:11:55.443Z,2.30
2022-12-09T14:14:57.014Z,2.30
2022-12-09T14:18:01.231Z,2.30
2022-12-09T14:20:40.587Z,2.30
2022-12-09T14:23:19.375Z,2.30
2022-12-09T14:26:06.516Z,2.30
2022-12-09T14:28:54.006Z,2.30
2022-12-09T14:31:49.513Z,2.30
2022-12-09T14:34:34.191Z,2.30
2022-12-09T14:37:21.470Z,2.30
2022-12-09T14:39:54.677Z,2.30
2022-12-09T14:42:32.912Z,2.30
2022-12-09T14:45:12.242Z,2.30
2022-12-09T14:47:44.576Z,2.40
2022-12-09T14:50:17.206Z,2.30
2022-12-09T14:52:53.870Z,2.30
2022-12-09T14:55:24.772Z,2.30
2022-12-09T14:57:54.658Z,2.30
2022-12-09T15:00:35.460Z,2.30
2022-12-09T15:06:02.435Z,2.30
2022-12-09T15:08:33.707Z,2.30
2022-12-09T15:11:05.478Z,2.40
2022-12-09T15:13:34.545Z,2.40
2022-12-09T15:16:03.010Z,2.40
2022-12-09T15:18:38.725Z,2.40
2022-12-09T15:21:08.806Z,2.40
2022-12-09T15:23:40.033Z,2.40
2022-12-09T15:26:10.721Z,2.30
2022-12-09T15:28:38.888Z,2.30
2022-12-09T15:31:14.641Z,2.30
2022-12-09T15:33:44.592Z,2.30
2022-12-09T15:36:17.823Z,2.40
2022-12-09T15:38:49.988Z,2.30
2022-12-09T15:41:37.131Z,2.30
2022-12-09T15:44:09.132Z,2.30
2022-12-09T15:46:40.034Z,2.30
2022-12-09T15:49:10.064Z,2.30
2022-12-09T15:51:43.349Z,2.30
2022-12-09T15:54:16.666Z,2.30
2022-12-09T15:56:52.404Z,2.30
2022-12-09T15:59:23.410Z,2.30
2022-12-09T16:01:53.805Z,2.30
2022-12-09T16:04:25.204Z,2.30
2022-12-09T16:06:55.792Z,2.30
2022-12-09T16:09:25.961Z,2.40
2022-12-09T16:11:55.299Z,2.30
2022-12-09T16:14:24.532Z,2.30
2022-12-09T16:16:56.466Z,2.30
2022-12-09T16:19:33.577Z,2.30
2022-12-09T16:22:05.494Z,2.30
2022-12-09T16:24:58.005Z,2.30
2022-12-09T16:27:24.788Z,2.30
2022-12-09T16:29:55.675Z,2.30
2022-12-09T16:32:27.119Z,2.30
2022-12-09T16:34:57.274Z,2.30
2022-12-09T16:37:32.043Z,2.30
2022-12-09T16:40:00.950Z,2.30
2022-12-09T16:42:30.704Z,2.30
2022-12-09T16:45:23.879Z,2.30
2022-12-09T16:47:55.608Z,2.30
2022-12-09T16:50:27.326Z,2.30
2022-12-09T16:52:57.306Z,2.30
2022-12-09T16:55:27.070Z,2.30
2022-12-09T16:57:55.511Z,2.30
2022-12-09T17:00:23.734Z,2.30
2022-12-09T17:02:54.131Z,2.30
2022-12-09T17:05:21.936Z,2.30
2022-12-09T17:07:49.740Z,2.30
2022-12-09T17:10:19.140Z,2.30
2022-12-09T17:12:47.633Z,2.30
2022-12-09T17:15:17.151Z,2.30
2022-12-09T17:17:48.666Z,2.30
2022-12-09T17:20:17.296Z,2.30
2022-12-09T17:22:45.364Z,2.30
2022-12-09T17:25:13.306Z,2.30
2022-12-09T17:27:42.648Z,2.30
2022-12-09T17:30:11.706Z,2.30
2022-12-09T17:32:39.899Z,2.30
2022-12-09T17:35:12.507Z,2.30
2022-12-09T17:37:40.717Z,2.30
2022-12-09T17:40:09.511Z,2.30
2022-12-09T17:42:37.747Z,2.30
2022-12-09T17:45:08.426Z,2.30
2022-12-09T17:47:36.837Z,2.30
2022-12-09T17:50:05.109Z,2.30
2022-12-09T17:52:33.169Z,2.30
2022-12-09T17:55:01.078Z,2.30
2022-12-09T17:57:28.910Z,2.30
2022-12-09T17:59:57.424Z,2.30
2022-12-09T18:02:26.909Z,2.30
2022-12-09T18:04:54.811Z,2.30
2022-12-09T18:07:22.653Z,2.30
2022-12-09T18:09:54.542Z,2.30
2022-12-09T18:12:22.770Z,2.30
2022-12-09T18:14:50.810Z,2.30
2022-12-09T18:17:18.783Z,2.30
2022-12-09T18:19:48.298Z,2.30
2022-12-09T18:22:16.154Z,2.30
2022-12-09T18:24:45.013Z,2.30
2022-12-09T18:27:12.864Z,2.30
2022-12-09T18:29:41.833Z,2.20
2022-12-09T18:32:09.950Z,2.30
2022-12-09T18:34:38.273Z,2.30
2022-12-09T18:37:07.690Z,2.30
2022-12-09T18:39:35.508Z,2.30
2022-12-09T18:42:03.432Z,2.20
2022-12-09T18:44:31.522Z,2.30
2022-12-09T18:47:00.252Z,2.30
2022-12-09T18:49:28.523Z,2.30
2022-12-09T18:51:56.728Z,2.30
2022-12-09T18:54:27.410Z,2.20
2022-12-09T18:56:58.691Z,2.20
2022-12-09T18:59:26.664Z,2.30
2022-12-09T19:01:54.801Z,2.30
2022-12-09T19:04:24.546Z,2.20
2022-12-09T19:06:55.109Z,2.30
2022-12-09T19:09:26.649Z,2.30
2022-12-09T19:11:55.519Z,2.20
2022-12-09T19:14:25.284Z,2.20
2022-12-09T19:16:53.868Z,2.20
2022-12-09T19:19:24.855Z,2.30
2022-12-09T19:21:53.952Z,2.30
2022-12-09T19:24:25.444Z,2.20
2022-12-09T19:26:57.918Z,2.20
2022-12-09T19:29:27.880Z,2.20
2022-12-09T19:31:57.103Z,2.20
2022-12-09T19:34:26.399Z,2.20
2022-12-09T19:36:56.415Z,2.20
2022-12-09T19:39:29.914Z,2.20
2022-12-09T19:41:58.678Z,2.20
2022-12-09T19:47:15.596Z,2.20
2022-12-09T19:49:44.349Z,2.20
2022-12-09T19:52:12.448Z,2.20
2022-12-09T19:54:41.669Z,2.20
2022-12-09T19:57:10.600Z,2.20
2022-12-09T19:59:38.601Z,2.20
2022-12-09T20:02:08.021Z,2.20
2022-12-09T20:04:51.659Z,2.20
2022-12-09T20:07:20.119Z,2.20
2022-12-09T20:09:49.841Z,2.20
2022-12-09T20:12:17.809Z,2.20
2022-12-09T20:14:45.764Z,2.20
2022-12-09T20:17:13.660Z,2.20
2022-12-09T20:19:41.690Z,2.20
2022-12-09T20:22:10.627Z,2.20
2022-12-09T20:24:38.624Z,2.20
2022-12-09T20:27:08.022Z,2.20
2022-12-09T20:29:38.120Z,2.20
2022-12-09T20:32:06.893Z,2.20
2022-12-09T20:34:35.453Z,2.20
2022-12-09T20:37:03.720Z,2.20
2022-12-09T20:39:31.682Z,2.20
2022-12-09T20:41:59.695Z,2.20
2022-12-09T20:44:29.103Z,2.20
2022-12-09T20:46:56.934Z,2.20
2022-12-09T20:49:27.076Z,2.20
2022-12-09T20:51:55.197Z,2.10
2022-12-09T20:54:23.122Z,2.20
2022-12-09T20:56:51.042Z,2.20
2022-12-09T20:59:18.923Z,2.10
2022-12-09T21:01:48.099Z,2.20
2022-12-09T21:04:16.431Z,2.10
2022-12-09T21:06:44.662Z,2.20
2022-12-09T21:09:17.383Z,2.20
2022-12-09T21:11:46.143Z,2.20
2022-12-09T21:14:14.524Z,2.10
2022-12-09T21:16:46.819Z,2.10
2022-12-09T21:19:17.318Z,2.10
2022-12-09T21:21:47.014Z,2.10
2022-12-09T21:24:15.940Z,2.10
2022-12-09T21:26:44.334Z,2.10
2022-12-09T21:29:13.055Z,2.10
2022-12-09T21:31:44.158Z,2.10
2022-12-09T21:34:12.171Z,2.10
2022-12-09T21:36:44.129Z,2.10
2022-12-09T21:39:13.879Z,2.10
2022-12-09T21:41:42.091Z,2.10
2022-12-09T21:44:14.307Z,2.10
2022-12-09T21:46:42.361Z,2.10
2022-12-09T21:49:10.836Z,2.10
2022-12-09T21:51:39.049Z,2.10
2022-12-09T21:54:08.612Z,2.10
2022-12-09T21:56:36.819Z,2.10
2022-12-09T21:59:06.581Z,2.10
2022-12-09T22:01:36.609Z,2.10
2022-12-09T22:04:06.947Z,2.10
2022-12-09T22:06:35.252Z,2.10
2022-12-09T22:09:04.814Z,2.00
2022-12-09T22:11:36.805Z,2.10
2022-12-09T22:14:05.242Z,2.00
2022-12-09T22:16:36.055Z,2.10
2022-12-09T22:19:05.268Z,2.10
2022-12-09T22:21:34.224Z,2.00
2022-12-09T22:24:05.109Z,2.10
2022-12-09T22:26:35.128Z,2.10
2022-12-09T22:29:05.622Z,2.00
2022-12-09T22:31:36.201Z,2.10
2022-12-09T22:34:06.536Z,2.10
2022-12-09T22:36:36.739Z,2.00
2022-12-09T22:39:06.607Z,2.00
2022-12-09T22:41:36.410Z,2.00
2022-12-09T22:44:05.753Z,2.00
2022-12-09T22:46:34.775Z,2.10
2022-12-09T22:49:07.235Z,2.00
2022-12-09T22:51:37.082Z,2.00
2022-12-09T22:54:07.997Z,2.00
2022-12-09T22:56:39.085Z,2.00
2022-12-09T22:59:07.424Z,2.00
2022-12-09T23:01:37.227Z,2.00
2022-12-09T23:04:06.773Z,2.10
2022-12-09T23:06:36.631Z,2.00
2022-12-09T23:09:05.432Z,2.00
2022-12-09T23:11:33.338Z,2.00
2022-12-09T23:14:02.849Z,2.00
2022-12-09T23:16:31.293Z,2.00
2022-12-09T23:19:00.164Z,2.00
2022-12-09T23:21:29.795Z,2.00
2022-12-09T23:23:59.812Z,2.00
2022-12-09T23:26:29.932Z,2.00
2022-12-09T23:28:59.700Z,2.00
2022-12-09T23:31:31.360Z,2.00
2022-12-09T23:34:00.086Z,2.00
2022-12-09T23:36:31.921Z,2.00
2022-12-09T23:39:00.294Z,2.00
2022-12-09T23:41:28.772Z,2.00
2022-12-09T23:43:56.751Z,2.00
2022-12-09T23:46:26.747Z,2.00
2022-12-09T23:48:57.053Z,2.00
2022-12-09T23:51:26.838Z,2.00
2022-12-09T23:53:56.626Z,2.00
2022-12-09T23:56:26.505Z,2.00
2022-12-09T23:58:56.283Z,1.90
